Time;durP1;ratioP1;P1;durP2;ratioP2;P2;SDS_P1;SDS_P2;PMS_P1;PMS_P2;Temp;Humidity;BMP_temperature;BMP_pressure;BME280_temperature;BME280_humidity;BME280_pressure;Samples;Min_cycle;Max_cycle;Signal;HPM_P1;HPM_P2
2023/02/14 00:00:28;;;;;;;18.07;7.27;;;;;;;4.99;74.18;101495.82;125604;1096;104291;-78
2023/02/14 00:03:19;;;;;;;17.73;6.80;;;;;;;5.00;74.24;101497.64;125448;1096;104242;-79
2023/02/14 00:05:50;;;;;;;18.13;7.07;;;;;;;5.02;73.93;101479.55;125541;1096;104248;-79
2023/02/14 00:08:21;;;;;;;15.97;6.83;;;;;;;5.04;74.10;101480.55;125553;1099;103228;-78
2023/02/14 00:10:53;;;;;;;16.97;6.20;;;;;;;5.04;73.80;101475.34;125526;1096;102083;-80
2023/02/14 00:13:24;;;;;;;14.77;5.90;;;;;;;5.04;73.33;101460.63;125480;1096;101900;-77
2023/02/14 00:15:56;;;;;;;14.60;6.23;;;;;;;5.05;73.46;101469.37;125504;1096;101909;-78
2023/02/14 00:19:02;;;;;;;16.77;6.73;;;;;;;5.06;73.27;101468.55;125480;1096;103388;-79
2023/02/14 00:21:19;;;;;;;17.53;6.53;;;;;;;5.04;73.07;101459.73;125390;1096;102737;-78
2023/02/14 00:23:50;;;;;;;12.33;5.80;;;;;;;5.06;73.27;101465.06;125492;1099;101827;-80
2023/02/14 00:26:21;;;;;;;16.33;6.33;;;;;;;5.07;73.49;101459.08;125473;1099;101785;-76
2023/02/14 00:28:53;;;;;;;17.83;6.07;;;;;;;5.04;72.97;101455.43;125302;1099;102188;-81
2023/02/14 00:31:25;;;;;;;14.77;5.70;;;;;;;5.06;73.47;101446.84;125373;1096;104376;-75
2023/02/14 00:33:56;;;;;;;16.77;6.67;;;;;;;5.05;72.76;101435.55;125480;1096;101998;-79
2023/02/14 00:36:27;;;;;;;14.23;5.90;;;;;;;5.06;72.98;101428.64;125526;1096;102096;-79
2023/02/14 00:38:58;;;;;;;14.77;6.00;;;;;;;5.06;72.64;101431.23;125503;1096;104300;-80
2023/02/14 00:41:30;;;;;;;14.23;6.23;;;;;;;5.05;72.52;101425.14;125409;1096;102173;-80
2023/02/14 00:44:01;;;;;;;15.27;6.27;;;;;;;5.06;72.69;101426.92;125447;1096;104089;-80
2023/02/14 00:46:33;;;;;;;16.00;6.50;;;;;;;5.06;72.73;101420.83;125498;1099;104223;-77
2023/02/14 00:49:05;;;;;;;14.60;6.47;;;;;;;5.08;72.84;101424.44;125538;1099;102228;-78
2023/02/14 00:51:37;;;;;;;15.10;6.20;;;;;;;5.08;72.37;101429.64;125463;1095;104245;-80
2023/02/14 00:54:08;;;;;;;14.73;6.10;;;;;;;5.09;72.50;101426.26;125448;1096;104163;-79
2023/02/14 00:56:39;;;;;;;15.50;6.20;;;;;;;5.08;72.34;101427.04;125631;1096;104245;-79
2023/02/14 00:59:13;;;;;;;15.65;6.33;;;;;;;5.09;72.42;101431.46;125518;1099;101894;-80
2023/02/14 01:01:46;;;;;;;14.10;6.07;;;;;;;5.08;72.11;101422.77;125571;1096;104174;-79
2023/02/14 01:04:17;;;;;;;15.27;6.60;;;;;;;5.07;72.23;101414.84;125482;1096;101801;-78
2023/02/14 01:06:50;;;;;;;16.53;6.67;;;;;;;5.07;72.36;101392.33;125321;1099;104188;-81
2023/02/14 01:09:21;;;;;;;15.50;6.40;;;;;;;5.07;71.58;101396.64;125440;1096;104248;-80
2023/02/14 01:11:52;;;;;;;13.60;6.30;;;;;;;5.07;72.17;101394.93;125429;1096;101807;-78
2023/02/14 01:14:23;;;;;;;15.33;6.47;;;;;;;5.06;72.08;101394.81;125436;1095;104230;-77
2023/02/14 01:16:55;;;;;;;15.63;6.57;;;;;;;5.04;71.78;101398.20;125409;1096;102086;-78
2023/02/14 01:19:29;;;;;;;14.83;6.53;;;;;;;5.03;72.11;101393.81;125386;1096;104211;-79
2023/02/14 01:22:00;;;;;;;14.17;6.30;;;;;;;5.03;71.79;101390.28;125440;1096;104233;-77
2023/02/14 01:24:31;;;;;;;15.65;6.70;;;;;;;5.02;71.84;101393.70;125459;1096;104217;-78
2023/02/14 01:27:04;;;;;;;15.20;6.70;;;;;;;5.01;72.25;101408.38;125359;1096;104335;-79
2023/02/14 01:29:37;;;;;;;16.93;6.83;;;;;;;5.00;72.20;101400.47;125454;1096;104172;-80
2023/02/14 01:32:08;;;;;;;18.73;7.20;;;;;;;5.00;71.97;101384.86;125426;1097;104176;-78
2023/02/14 01:34:39;;;;;;;16.57;6.90;;;;;;;4.97;71.98;101382.97;125433;1099;104712;-80
2023/02/14 01:37:11;;;;;;;17.70;7.20;;;;;;;4.97;71.58;101375.16;125431;1099;102584;-78
2023/02/14 01:39:42;;;;;;;16.23;7.20;;;;;;;4.97;71.86;101374.23;125406;1099;104217;-80
2023/02/14 01:42:13;;;;;;;19.13;7.37;;;;;;;4.97;71.60;101379.44;125640;1099;102265;-77
2023/02/14 01:45:00;;;;;;;14.23;6.57;;;;;;;4.95;71.98;101379.33;125418;1096;102070;-79
2023/02/14 01:47:37;;;;;;;16.03;6.63;;;;;;;4.94;72.02;101368.81;125443;1096;102885;-79
2023/02/14 01:50:12;;;;;;;15.07;6.30;;;;;;;4.94;71.39;101380.14;125452;1096;101991;-79
2023/02/14 01:52:46;;;;;;;17.17;6.80;;;;;;;4.95;71.38;101363.72;125476;1096;104220;-79
2023/02/14 01:55:21;;;;;;;14.43;5.90;;;;;;;4.93;71.68;101367.92;125467;1096;102360;-80
2023/02/14 01:57:57;;;;;;;14.67;6.03;;;;;;;4.93;71.63;101357.52;125473;1096;104268;-80
2023/02/14 02:03:19;;;;;;;13.40;6.03;;;;;;;4.92;71.80;101344.40;125400;1095;102038;-79
2023/02/14 02:05:55;;;;;;;16.80;6.40;;;;;;;4.93;71.58;101356.63;125460;1096;104198;-80
2023/02/14 02:08:28;;;;;;;12.80;6.00;;;;;;;4.92;71.69;101350.49;125505;1099;104214;-79
2023/02/14 02:11:03;;;;;;;13.07;6.23;;;;;;;4.92;71.26;101347.89;125365;1099;104210;-81
2023/02/14 02:13:34;;;;;;;13.20;5.93;;;;;;;4.90;71.81;101354.69;125423;1096;104274;-80
2023/02/14 02:16:18;;;;;;;14.63;6.20;;;;;;;4.90;71.50;101366.80;125535;1096;101900;-80
2023/02/14 02:19:01;;;;;;;15.40;6.22;;;;;;;4.91;71.67;101365.98;125411;1099;103262;-81
2023/02/14 02:21:58;;;;;;;14.87;6.93;;;;;;;4.91;72.12;101364.31;125467;1099;104207;-79
2023/02/14 02:24:37;;;;;;;15.30;6.70;;;;;;;4.89;71.94;101354.58;125492;1096;104169;-79
2023/02/14 02:27:48;;;;;;;16.53;7.13;;;;;;;4.88;72.06;101342.36;125362;1096;102368;-81
2023/02/14 02:30:45;;;;;;;16.67;6.57;;;;;;;4.87;71.71;101338.87;125447;1096;104162;-79
2023/02/14 02:33:56;;;;;;;17.70;7.20;;;;;;;4.86;71.98;101324.97;125424;1096;104268;-80
2023/02/14 02:36:58;;;;;;;17.17;7.60;;;;;;;4.87;72.32;101325.86;125446;1096;104169;-79
2023/02/14 02:39:46;;;;;;;18.43;7.60;;;;;;;4.85;72.26;101338.75;125437;1096;101928;-79
2023/02/14 02:42:33;;;;;;;15.83;7.07;;;;;;;4.86;72.48;101318.84;125333;1099;104252;-80
2023/02/14 02:45:12;;;;;;;15.80;7.23;;;;;;;4.85;72.15;101322.26;125311;1099;104347;-80
2023/02/14 02:47:52;;;;;;;16.70;7.97;;;;;;;4.83;72.87;101329.95;125462;1096;104166;-79
2023/02/14 02:53:23;;;;;;;17.60;8.10;;;;;;;4.82;72.51;101312.53;125338;1096;101881;-80
2023/02/14 02:58:52;;;;;;;18.37;8.07;;;;;;;4.81;72.74;101310.71;125381;1099;104224;-79
2023/02/14 03:01:28;;;;;;;17.80;7.37;;;;;;;4.80;73.52;101292.40;125398;1097;104666;-80
2023/02/14 03:07:00;;;;;;;17.20;7.53;;;;;;;4.80;73.09;101289.80;125302;1096;101924;-77
2023/02/14 03:09:52;;;;;;;18.37;7.63;;;;;;;4.77;72.49;101285.30;125299;1096;102310;-80
2023/02/14 03:12:46;;;;;;;20.03;8.23;;;;;;;4.78;73.20;101281.89;125374;1098;102338;-79
2023/02/14 03:15:30;;;;;;;16.60;7.08;;;;;;;4.76;73.78;101291.28;125414;1096;104268;-79
2023/02/14 03:18:12;;;;;;;17.27;7.33;;;;;;;4.77;73.04;101289.58;125447;1099;101900;-79
2023/02/14 03:20:54;;;;;;;17.33;7.77;;;;;;;4.77;73.09;101273.98;125540;1099;104306;-78
2023/02/14 03:23:29;;;;;;;17.07;7.50;;;;;;;4.76;73.45;101285.19;125303;1099;104195;-78
2023/02/14 03:26:08;;;;;;;18.33;8.00;;;;;;;4.75;73.78;101279.06;125421;1096;104648;-80
2023/02/14 03:28:47;;;;;;;18.67;7.80;;;;;;;4.75;73.29;101273.87;125497;1099;104249;-80
2023/02/14 03:31:28;;;;;;;16.87;7.50;;;;;;;4.74;73.39;101287.69;125417;1096;104271;-78
2023/02/14 03:34:02;;;;;;;17.90;7.33;;;;;;;4.73;74.13;101298.87;125435;1096;104149;-79
2023/02/14 03:36:40;;;;;;;21.73;8.73;;;;;;;4.73;73.83;101288.47;125365;1099;104313;-79
2023/02/14 03:39:16;;;;;;;17.17;8.60;;;;;;;4.74;74.31;101276.39;125288;1099;104368;-79
2023/02/14 03:41:53;;;;;;;17.07;7.90;;;;;;;4.73;73.94;101282.38;125203;1096;102115;-79
2023/02/14 03:44:30;;;;;;;17.67;7.90;;;;;;;4.72;73.78;101283.16;125285;1099;104313;-78
2023/02/14 03:47:06;;;;;;;19.55;9.10;;;;;;;4.71;73.94;101269.27;125347;1099;101971;-79
2023/02/14 03:49:40;;;;;;;17.07;8.30;;;;;;;4.72;74.31;101264.95;125207;1099;104272;-78
2023/02/14 03:52:12;;;;;;;20.37;8.80;;;;;;;4.71;74.22;101271.86;125157;1096;102526;-76
2023/02/14 03:54:45;;;;;;;18.70;8.40;;;;;;;4.70;74.61;101292.55;125193;1096;101876;-77
2023/02/14 03:57:21;;;;;;;21.07;9.50;;;;;;;4.68;74.39;101277.73;125252;1096;102119;-76
2023/02/14 03:59:53;;;;;;;19.33;8.47;;;;;;;4.66;74.04;101274.13;125249;1096;104169;-77
2023/02/14 04:02:30;;;;;;;19.03;8.50;;;;;;;4.65;74.95;101269.72;125581;1096;102270;-78
2023/02/14 04:05:05;;;;;;;19.97;9.17;;;;;;;4.64;74.32;101260.13;125420;1096;104670;-78
2023/02/14 04:07:46;;;;;;;20.87;9.37;;;;;;;4.64;75.19;101275.73;125360;1096;101888;-78
2023/02/14 04:10:19;;;;;;;19.80;9.10;;;;;;;4.63;74.46;101278.22;125391;1096;104181;-77
2023/02/14 04:12:51;;;;;;;18.57;9.13;;;;;;;4.63;74.67;101260.02;125424;1096;104204;-78
2023/02/14 04:15:22;;;;;;;19.00;9.27;;;;;;;4.62;75.12;101266.89;125352;1096;104303;-78
2023/02/14 04:20:45;;;;;;;21.70;9.55;;;;;;;4.62;74.75;101245.20;125378;1096;104191;-79
2023/02/14 04:23:16;;;;;;;17.80;8.67;;;;;;;4.63;75.57;101245.31;125371;1096;104239;-78
2023/02/14 04:25:47;;;;;;;20.40;8.90;;;;;;;4.63;74.82;101260.91;125457;1096;102528;-79
2023/02/14 04:28:19;;;;;;;18.17;9.40;;;;;;;4.62;74.92;101251.30;125505;1096;104229;-80
2023/02/14 04:30:50;;;;;;;20.07;9.00;;;;;;;4.62;74.73;101248.70;125500;1095;101845;-75
2023/02/14 04:33:21;;;;;;;20.13;9.43;;;;;;;4.63;75.30;101242.72;125389;1096;104246;-77
2023/02/14 04:35:52;;;;;;;19.03;8.93;;;;;;;4.64;74.78;101244.53;125395;1096;104178;-78
2023/02/14 04:38:23;;;;;;;20.50;9.50;;;;;;;4.63;74.81;101247.02;125490;1096;102129;-79
2023/02/14 04:40:55;;;;;;;20.57;9.80;;;;;;;4.64;75.00;101236.73;125724;1095;102029;-77
2023/02/14 04:43:26;;;;;;;19.73;9.27;;;;;;;4.63;74.66;101237.52;125283;1096;102343;-77
2023/02/14 04:45:57;;;;;;;19.43;9.63;;;;;;;4.64;75.01;101244.53;125316;1096;102048;-78
2023/02/14 04:48:28;;;;;;;20.70;8.77;;;;;;;4.66;74.87;101248.13;125336;1096;102188;-78
2023/02/14 04:51:00;;;;;;;18.23;8.60;;;;;;;4.67;75.06;101244.75;125307;1096;104169;-79
2023/02/14 04:53:31;;;;;;;19.10;8.83;;;;;;;4.67;74.55;101249.95;125224;1096;104057;-79
2023/02/14 04:56:02;;;;;;;17.80;8.27;;;;;;;4.66;74.99;101258.53;125251;1096;102268;-79
2023/02/14 04:58:33;;;;;;;16.23;7.60;;;;;;;4.67;75.09;101241.23;125481;1096;104192;-82
2023/02/14 05:01:05;;;;;;;20.53;8.47;;;;;;;4.68;75.08;101233.53;125634;1096;102061;-83
2023/02/14 05:03:36;;;;;;;18.83;8.43;;;;;;;4.67;75.03;101249.03;125817;1095;102032;-82
2023/02/14 05:06:07;;;;;;;17.73;8.17;;;;;;;4.66;74.99;101266.33;125609;1096;104246;-82
2023/02/14 05:08:39;;;;;;;18.17;8.20;;;;;;;4.62;75.42;101253.89;125810;1096;104318;-81
2023/02/14 05:11:10;;;;;;;18.73;8.30;;;;;;;4.59;75.19;101251.08;125598;1096;104009;-81
2023/02/14 05:13:41;;;;;;;19.97;8.77;;;;;;;4.58;75.95;101251.89;125743;1096;103393;-81
2023/02/14 05:16:13;;;;;;;17.83;8.80;;;;;;;4.55;75.27;101243.87;125737;1096;101957;-80
2023/02/14 05:18:44;;;;;;;18.13;9.20;;;;;;;4.54;75.58;101252.45;125730;1095;104182;-79
2023/02/14 05:21:16;;;;;;;19.00;8.80;;;;;;;4.54;75.79;101248.97;125780;1096;101860;-83
2023/02/14 05:23:47;;;;;;;17.63;8.73;;;;;;;4.53;75.76;101245.44;125952;1095;101836;-79
2023/02/14 05:26:18;;;;;;;19.77;9.30;;;;;;;4.55;75.95;101250.75;125991;1096;104128;-84
2023/02/14 05:28:49;;;;;;;19.20;9.80;;;;;;;4.56;75.67;101244.77;125749;1096;104307;-84
2023/02/14 05:31:20;;;;;;;20.13;8.63;;;;;;;4.56;76.01;101240.45;125775;1096;104181;-75
2023/02/14 05:33:52;;;;;;;21.07;10.13;;;;;;;4.58;75.42;101238.90;125999;1096;104217;-78
2023/02/14 05:36:23;;;;;;;22.23;10.27;;;;;;;4.60;75.95;101247.70;125811;1096;101993;-80
2023/02/14 05:38:55;;;;;;;21.03;9.37;;;;;;;4.62;75.54;101214.91;125721;1096;103183;-78
2023/02/14 05:41:27;;;;;;;19.97;10.10;;;;;;;4.64;75.83;101264.41;125716;1096;102101;-82
2023/02/14 05:43:58;;;;;;;20.43;9.27;;;;;;;4.66;75.24;101273.24;125753;1099;104111;-80
2023/02/14 05:46:29;;;;;;;18.67;8.93;;;;;;;4.68;75.36;101266.45;125598;1096;104178;-78
2023/02/14 05:49:01;;;;;;;18.40;8.93;;;;;;;4.70;75.39;101253.55;125535;1099;112029;-79
2023/02/14 05:51:32;;;;;;;19.17;9.20;;;;;;;4.70;75.62;101258.75;125522;1096;104239;-78
2023/02/14 05:54:03;;;;;;;22.80;9.53;;;;;;;4.72;75.36;101251.95;125476;1096;104166;-79
2023/02/14 05:56:35;;;;;;;23.60;10.57;;;;;;;4.73;75.18;101252.06;125440;1096;102589;-77
2023/02/14 05:59:06;;;;;;;20.03;10.00;;;;;;;4.74;75.43;101251.28;125483;1099;104239;-80
2023/02/14 06:01:38;;;;;;;20.30;9.67;;;;;;;4.77;75.08;101240.17;125398;1099;102027;-78
2023/02/14 06:04:09;;;;;;;19.20;9.70;;;;;;;4.78;75.36;101244.59;125417;1096;104224;-81
2023/02/14 06:06:40;;;;;;;20.60;9.40;;;;;;;4.78;74.90;101239.39;125421;1096;102399;-79
2023/02/14 06:09:12;;;;;;;18.00;9.07;;;;;;;4.78;74.95;101240.28;125219;1096;102100;-76
2023/02/14 06:11:43;;;;;;;20.70;9.20;;;;;;;4.78;74.93;101240.28;125275;1096;104162;-77
2023/02/14 06:14:14;;;;;;;20.00;9.77;;;;;;;4.79;75.05;101230.80;125215;1096;104201;-76
2023/02/14 06:16:48;;;;;;;19.97;10.17;;;;;;;4.82;74.69;101231.91;125271;1096;104682;-76
2023/02/14 06:19:19;;;;;;;20.60;9.65;;;;;;;4.84;74.89;101239.83;125428;1096;105433;-76
2023/02/14 06:21:51;;;;;;;20.77;9.10;;;;;;;4.86;74.86;101238.22;125506;1096;103109;-77
2023/02/14 06:24:22;;;;;;;18.63;8.93;;;;;;;4.86;74.49;101246.95;125438;1096;104214;-75
2023/02/14 06:27:06;;;;;;;20.20;9.50;;;;;;;4.89;75.16;101224.55;125571;1095;102122;-79
2023/02/14 06:29:37;;;;;;;18.95;9.05;;;;;;;4.90;74.26;101255.86;125562;1099;104248;-83
2023/02/14 06:32:10;;;;;;;19.13;9.00;;;;;;;4.91;75.10;101228.14;125497;1096;104227;-77
2023/02/14 06:34:41;;;;;;;19.67;9.63;;;;;;;4.93;74.91;101236.98;125454;1096;104306;-77
2023/02/14 06:37:13;;;;;;;19.77;9.03;;;;;;;4.92;74.39;101241.25;125529;1096;104051;-76
2023/02/14 06:39:46;;;;;;;19.23;9.13;;;;;;;4.93;74.79;101224.87;125452;1096;104248;-78
2023/02/14 06:42:18;;;;;;;18.95;8.68;;;;;;;4.92;74.84;101225.66;125369;1099;103653;-79
2023/02/14 06:44:49;;;;;;;20.03;8.90;;;;;;;4.92;75.23;101254.27;125621;1096;103154;-77
2023/02/14 06:47:21;;;;;;;19.00;8.47;;;;;;;4.90;74.98;101232.45;125323;1099;104225;-78
2023/02/14 06:49:52;;;;;;;19.27;8.73;;;;;;;4.88;75.22;101233.13;125419;1096;103651;-77
2023/02/14 06:52:23;;;;;;;18.10;8.93;;;;;;;4.84;75.18;101235.52;125425;1096;103282;-76
2023/02/14 06:54:55;;;;;;;19.57;8.93;;;;;;;4.83;75.44;101230.20;125465;1099;101928;-78
2023/02/14 06:57:27;;;;;;;18.87;9.13;;;;;;;4.81;75.74;101237.01;125546;1096;102413;-77
2023/02/14 07:00:02;;;;;;;19.45;9.25;;;;;;;4.79;75.54;101210.00;125656;1096;102669;-77
2023/02/14 07:02:34;;;;;;;22.63;9.53;;;;;;;4.77;75.63;101221.97;125691;1096;104159;-77
2023/02/14 07:05:06;;;;;;;18.87;9.30;;;;;;;4.72;76.36;101231.16;125597;1096;102572;-77
2023/02/14 07:07:40;;;;;;;21.93;9.83;;;;;;;4.71;75.81;101203.37;125529;1096;102199;-80
2023/02/14 07:10:15;;;;;;;19.20;9.33;;;;;;;4.70;76.23;101230.16;125697;1096;103168;-78
2023/02/14 07:12:48;;;;;;;19.57;10.07;;;;;;;4.70;76.20;101218.05;125804;1096;104098;-79
2023/02/14 07:15:21;;;;;;;20.77;9.93;;;;;;;4.69;77.03;101229.27;125629;1099;102580;-78
2023/02/14 07:17:54;;;;;;;18.50;9.80;;;;;;;4.70;76.65;101217.16;125294;1099;102779;-76
2023/02/14 07:20:31;;;;;;;21.30;10.60;;;;;;;4.71;76.27;101219.86;125527;1096;102506;-78
2023/02/14 07:23:03;;;;;;;24.70;10.35;;;;;;;4.71;76.34;101225.06;125647;1096;103798;-76
2023/02/14 07:25:36;;;;;;;21.70;9.83;;;;;;;4.71;76.92;101209.47;125595;1096;103746;-80
2023/02/14 07:28:08;;;;;;;19.65;10.25;;;;;;;4.70;76.59;101240.55;125681;1096;104139;-78
2023/02/14 07:30:44;;;;;;;19.83;10.17;;;;;;;4.71;76.57;101225.06;125555;1096;102231;-80
2023/02/14 07:33:16;;;;;;;24.10;10.73;;;;;;;4.72;76.53;101216.48;125787;1096;103294;-76
2023/02/14 07:35:52;;;;;;;20.53;10.17;;;;;;;4.75;76.78;101233.97;126059;1095;104309;-77
2023/02/14 07:38:24;;;;;;;21.27;10.50;;;;;;;4.76;76.92;101244.48;125577;1096;103888;-77
2023/02/14 07:43:59;;;;;;;20.80;10.38;;;;;;;4.90;76.39;101237.66;124932;1102;104255;-78
2023/02/14 07:46:31;;;;;;;21.37;10.27;;;;;;;4.87;76.78;101232.24;124483;1103;104166;-78
2023/02/14 07:49:05;;;;;;;24.18;10.05;;;;;;;4.81;76.80;101221.41;124376;1102;104249;-75
2023/02/14 07:51:37;;;;;;;22.00;9.83;;;;;;;4.81;76.58;101221.41;124270;1105;104264;-76
2023/02/14 07:54:08;;;;;;;21.67;10.73;;;;;;;4.80;76.38;101238.72;124301;1102;102989;-77
2023/02/14 07:56:41;;;;;;;25.77;11.33;;;;;;;4.80;76.24;101237.80;124411;1106;103078;-75
2023/02/14 07:59:15;;;;;;;21.87;10.57;;;;;;;4.80;76.50;101236.12;125714;1102;102349;-75
2023/02/14 08:01:48;;;;;;;22.73;10.50;;;;;;;4.82;76.10;101246.63;125691;1103;102629;-76
2023/02/14 08:04:24;;;;;;;23.20;10.20;;;;;;;4.80;76.56;101255.99;125572;1104;102086;-76
2023/02/14 08:06:56;;;;;;;22.10;11.07;;;;;;;4.79;76.58;101252.50;125630;1103;102087;-77
2023/02/14 08:09:29;;;;;;;22.93;11.03;;;;;;;4.80;76.13;101272.52;125503;1105;102900;-79
2023/02/14 08:18:17;;;;;;;23.73;10.53;;;;;;;4.81;76.46;101289.02;124768;1099;104347;-78
2023/02/14 08:20:51;;;;;;;23.33;11.00;;;;;;;4.82;76.04;101270.03;124682;1101;102563;-78
2023/02/14 08:23:24;;;;;;;22.90;10.57;;;;;;;4.81;76.12;101250.91;124748;1102;103515;-77
2023/02/14 08:25:59;;;;;;;22.55;11.10;;;;;;;4.84;76.22;101258.03;124963;1102;109026;-77
2023/02/14 08:28:31;;;;;;;;;;;;;;;4.87;76.28;101260.84;124845;1102;103063;-79
2023/02/14 08:31:04;;;;;;;22.60;10.63;;;;;;;4.86;76.14;101259.03;124944;1099;104253;-77
2023/02/14 08:33:36;;;;;;;21.87;10.77;;;;;;;4.89;76.16;101267.05;124884;1099;104275;-78
2023/02/14 08:36:18;;;;;;;21.83;10.30;;;;;;;4.88;76.23;101257.46;124856;1102;104050;-76
2023/02/14 08:38:54;;;;;;;19.87;10.30;;;;;;;4.90;76.28;101261.06;125022;1100;103464;-78
2023/02/14 08:41:30;;;;;;;20.13;10.07;;;;;;;4.91;76.06;101244.67;125481;1102;102058;-80
2023/02/14 08:44:03;;;;;;;23.00;10.30;;;;;;;4.92;76.31;101256.86;125663;1102;103038;-79
2023/02/14 08:47:00;;;;;;;22.97;10.67;;;;;;;4.91;76.83;101255.08;125597;1099;103165;-79
2023/02/14 08:49:47;;;;;;;24.20;11.13;;;;;;;4.90;76.81;101249.77;125407;1102;103051;-79
2023/02/14 08:59:14;;;;;;;;;;;;;;;;;;;;;
2023/02/14 09:02:06;;;;;;;23.07;11.00;;;;;;;4.94;77.00;101247.49;125866;1102;104293;-78
2023/02/14 09:05:37;;;;;;;21.83;9.70;;;;;;;4.98;77.85;101244.29;124815;1102;104204;-80
2023/02/14 09:08:43;;;;;;;22.02;10.53;;;;;;;4.98;77.54;101236.48;125489;1102;110206;-78
2023/02/14 09:11:44;;;;;;;23.00;10.23;;;;;;;5.04;77.73;101239.52;125782;1102;102866;-77
2023/02/14 09:14:20;;;;;;;23.10;10.53;;;;;;;5.11;77.51;101243.47;125790;1101;102170;-77
2023/02/14 09:17:04;;;;;;;24.47;11.23;;;;;;;5.17;77.93;101237.77;125564;1102;104313;-74
2023/02/14 09:19:37;;;;;;;25.27;10.97;;;;;;;5.30;77.48;101244.71;124833;1102;102886;-76
2023/02/14 09:22:18;;;;;;;21.07;10.30;;;;;;;5.32;77.31;101225.81;124604;1102;102662;-75
2023/02/14 09:24:56;;;;;;;20.37;9.60;;;;;;;5.33;77.60;101255.33;124508;1102;104173;-76
2023/02/14 09:27:31;;;;;;;22.50;10.20;;;;;;;5.36;77.33;101212.23;124761;1102;104258;-77
2023/02/14 09:30:11;;;;;;;21.67;9.73;;;;;;;5.42;77.05;101229.05;124781;1102;103364;-78
2023/02/14 09:32:53;;;;;;;22.97;9.40;;;;;;;5.46;77.26;101225.86;124865;1102;104205;-76
2023/02/14 09:38:15;;;;;;;20.93;10.43;;;;;;;5.54;77.03;101228.16;124913;1102;102907;-79
2023/02/14 09:40:49;;;;;;;20.70;9.83;;;;;;;5.57;76.79;101211.86;124914;1103;104234;-79
2023/02/14 09:43:31;;;;;;;19.50;9.97;;;;;;;5.58;77.05;101209.36;125048;1102;104303;-78
2023/02/14 09:46:09;;;;;;;23.87;10.47;;;;;;;5.62;76.35;101213.06;124857;1102;102376;-78
2023/02/14 09:48:47;;;;;;;23.47;10.17;;;;;;;5.68;76.86;101207.38;124867;1102;102255;-76
2023/02/14 09:51:22;;;;;;;19.27;9.27;;;;;;;5.69;76.64;101215.29;124932;1102;104219;-77
2023/02/14 09:53:58;;;;;;;20.43;10.10;;;;;;;5.70;76.57;101209.30;124865;1102;103008;-77
2023/02/14 09:56:52;;;;;;;22.40;10.27;;;;;;;5.71;76.51;101215.39;124971;1100;103366;-79
2023/02/14 09:59:35;;;;;;;19.17;9.47;;;;;;;5.70;76.04;101213.58;124933;1102;104166;-78
2023/02/14 10:02:30;;;;;;;20.30;9.83;;;;;;;5.71;76.22;101204.98;125201;1102;103124;-79
2023/02/14 10:05:13;;;;;;;19.37;9.40;;;;;;;5.71;76.46;101212.79;125182;1100;104259;-79
2023/02/14 10:08:00;;;;;;;18.43;9.00;;;;;;;5.75;75.88;101204.39;125041;1102;104210;-80
2023/02/14 10:10:38;;;;;;;21.80;10.10;;;;;;;5.75;75.81;101215.70;124985;1102;103967;-78
2023/02/14 10:13:19;;;;;;;17.73;8.10;;;;;;;5.80;76.31;101202.06;125067;1102;102780;-79
2023/02/14 10:15:57;;;;;;;19.40;9.43;;;;;;;5.85;75.85;101227.63;125064;1102;102643;-79
2023/02/14 10:18:38;;;;;;;19.70;9.73;;;;;;;5.86;75.77;101192.97;124876;1101;102640;-79
2023/02/14 10:21:16;;;;;;;21.43;10.57;;;;;;;5.90;75.64;101204.48;124899;1102;102768;-80
2023/02/14 10:23:56;;;;;;;23.00;10.03;;;;;;;5.91;75.79;101196.77;124923;1102;102741;-78
2023/02/14 10:26:33;;;;;;;21.53;9.70;;;;;;;5.96;75.41;101202.28;124832;1102;104185;-79
2023/02/14 10:29:11;;;;;;;19.83;9.83;;;;;;;6.02;75.48;101186.19;124814;1102;102872;-79
2023/02/14 10:31:55;;;;;;;20.83;9.33;;;;;;;6.06;75.33;101206.41;124910;1102;103406;-77
2023/02/14 10:34:35;;;;;;;21.27;8.83;;;;;;;6.08;75.53;101202.22;124954;1102;104275;-80
2023/02/14 10:37:32;;;;;;;19.63;8.77;;;;;;;6.11;75.18;101205.92;125009;1102;102496;-78
2023/02/14 10:40:35;;;;;;;22.20;9.77;;;;;;;6.08;74.62;101190.09;125080;1102;104242;-79
2023/02/14 10:43:24;;;;;;;21.73;9.00;;;;;;;6.01;74.29;101187.88;124956;1102;102250;-79
2023/02/14 10:46:06;;;;;;;20.33;9.50;;;;;;;6.00;74.82;101187.77;125403;1102;102640;-78
2023/02/14 10:48:54;;;;;;;19.60;8.83;;;;;;;5.99;74.26;101194.70;125344;1102;103292;-77
2023/02/14 10:51:44;;;;;;;20.17;8.90;;;;;;;5.95;74.85;101182.23;125204;1102;104105;-79
2023/02/14 10:54:25;;;;;;;23.27;9.60;;;;;;;6.10;74.83;101184.98;125310;1101;104185;-78
2023/02/14 10:57:06;;;;;;;19.20;9.17;;;;;;;6.22;74.54;101201.41;125146;1102;104089;-79
2023/02/14 10:59:49;;;;;;;21.87;9.27;;;;;;;6.37;74.22;101219.71;125248;1102;102574;-80
2023/02/14 11:02:28;;;;;;;20.47;9.17;;;;;;;6.42;73.69;101202.69;125142;1102;103967;-76
2023/02/14 11:05:02;;;;;;;19.30;9.10;;;;;;;6.41;73.75;101195.66;124992;1103;102508;-78
2023/02/14 11:07:34;;;;;;;18.77;8.73;;;;;;;6.40;73.64;101196.45;125263;1102;104006;-76
2023/02/14 11:10:14;;;;;;;20.37;9.57;;;;;;;6.35;73.25;101190.05;125107;1102;104356;-77
2023/02/14 11:12:49;;;;;;;21.73;9.10;;;;;;;6.30;72.89;101192.36;125180;1102;102287;-78
2023/02/14 11:15:33;;;;;;;18.03;8.47;;;;;;;6.23;73.30;101182.37;125238;1102;104174;-79
2023/02/14 11:18:21;;;;;;;16.63;7.70;;;;;;;6.20;73.26;101166.53;125218;1102;104246;-78
2023/02/14 11:21:07;;;;;;;18.00;8.53;;;;;;;6.22;72.94;101188.38;125044;1103;104179;-76
2023/02/14 11:23:42;;;;;;;17.07;7.97;;;;;;;6.26;72.27;101173.82;125127;1102;102553;-80
2023/02/14 11:26:22;;;;;;;18.97;8.60;;;;;;;6.32;73.16;101157.69;125225;1102;102628;-79
2023/02/14 11:29:00;;;;;;;17.75;7.10;;;;;;;6.44;71.97;101161.95;125221;1102;102455;-77
2023/02/14 11:31:36;;;;;;;16.33;7.30;;;;;;;6.53;71.65;101163.33;125148;1102;108125;-79
2023/02/14 11:34:31;;;;;;;17.37;7.53;;;;;;;6.60;70.37;101162.92;125292;1102;104185;-76
2023/02/14 11:37:04;;;;;;;17.33;7.27;;;;;;;6.68;71.51;101158.18;125144;1102;103193;-76
2023/02/14 11:39:37;;;;;;;18.73;8.43;;;;;;;6.70;71.38;101161.77;125382;1102;103084;-78
2023/02/14 11:42:12;;;;;;;21.30;8.10;;;;;;;6.66;71.15;101165.91;125166;1102;103054;-77
2023/02/14 11:44:57;;;;;;;16.23;7.17;;;;;;;6.65;70.50;101151.98;125219;1102;102962;-76
2023/02/14 11:47:31;;;;;;;18.17;7.00;;;;;;;6.67;69.52;101152.08;125063;1102;102225;-77
2023/02/14 11:50:09;;;;;;;18.48;7.45;;;;;;;6.68;70.09;101148.64;125216;1102;102990;-76
2023/02/14 11:52:51;;;;;;;15.73;7.10;;;;;;;6.72;69.70;101154.97;125200;1102;104287;-76
2023/02/14 11:55:31;;;;;;;15.47;6.80;;;;;;;6.76;69.69;101147.42;125236;1102;104310;-80
2023/02/14 11:58:07;;;;;;;16.13;7.37;;;;;;;6.80;69.19;101138.07;125243;1102;104171;-77
2023/02/14 12:00:39;;;;;;;16.50;7.50;;;;;;;6.90;69.21;101134.30;125189;1102;102493;-77
2023/02/14 12:03:22;;;;;;;18.73;7.50;;;;;;;6.96;69.58;101126.84;125183;1102;102523;-75
2023/02/14 12:05:59;;;;;;;19.83;7.37;;;;;;;7.07;69.98;101125.77;125257;1102;102250;-77
2023/02/14 12:08:32;;;;;;;17.93;6.60;;;;;;;7.16;67.62;101141.98;125370;1102;103897;-76
2023/02/14 12:11:10;;;;;;;14.83;6.20;;;;;;;7.19;67.59;101149.11;125139;1102;104169;-80
2023/02/14 12:13:51;;;;;;;15.80;6.63;;;;;;;7.14;68.02;101127.95;125062;1102;104191;-77
2023/02/14 12:16:30;;;;;;;17.47;7.13;;;;;;;7.12;67.46;101136.48;125221;1102;106131;-77
2023/02/14 12:19:13;;;;;;;15.83;7.07;;;;;;;7.11;67.17;101132.09;125057;1102;103068;-83
2023/02/14 12:21:56;;;;;;;16.13;7.13;;;;;;;7.08;68.69;101138.02;126026;1102;102876;-78
2023/02/14 12:24:35;;;;;;;16.97;7.73;;;;;;;7.02;67.84;101142.88;126221;1102;102030;-80